createdAt,value
2023-03-02T00:04:38.957Z,1.86
2023-03-02T00:09:43.181Z,1.80
2023-03-02T00:14:46.398Z,1.77
2023-03-02T00:19:51.063Z,1.71
2023-03-02T00:24:54.259Z,1.67
2023-03-02T00:29:57.552Z,1.63
2023-03-02T00:35:02.231Z,1.60
2023-03-02T00:40:07.493Z,1.56
2023-03-02T00:45:11.384Z,1.52
2023-03-02T00:50:16.078Z,1.50
2023-03-02T00:55:19.288Z,1.49
2023-03-02T01:00:23.281Z,1.48
2023-03-02T01:05:28.017Z,1.48
2023-03-02T01:10:32.845Z,1.46
2023-03-02T01:15:36.428Z,1.44
2023-03-02T01:20:41.137Z,1.42
2023-03-02T01:25:44.307Z,1.41
2023-03-02T01:30:48.978Z,1.41
2023-03-02T01:35:53.715Z,1.36
2023-03-02T01:40:57.663Z,1.27
2023-03-02T01:46:04.108Z,1.22
2023-03-02T01:51:10.584Z,1.18
2023-03-02T01:56:17.173Z,1.18
2023-03-02T02:01:20.549Z,1.14
2023-03-02T02:06:27.584Z,1.11
2023-03-02T02:11:31.507Z,1.07
2023-03-02T02:16:36.547Z,1.02
2023-03-02T02:21:41.259Z,0.97
2023-03-02T02:26:49.590Z,0.92
2023-03-02T02:31:57.565Z,0.88
2023-03-02T02:37:07.507Z,0.86
2023-03-02T02:42:16.608Z,0.81
2023-03-02T02:47:24.442Z,0.82
2023-03-02T02:52:29.478Z,0.80
2023-03-02T02:57:34.127Z,0.82
2023-03-02T03:02:45.613Z,0.83
2023-03-02T03:07:48.736Z,0.81
2023-03-02T03:12:53.730Z,0.83
2023-03-02T03:17:57.637Z,0.83
2023-03-02T03:23:00.956Z,0.81
2023-03-02T03:28:05.869Z,0.79
2023-03-02T03:33:11.550Z,0.74
2023-03-02T03:38:14.980Z,0.74
2023-03-02T03:43:19.569Z,0.74
2023-03-02T03:48:22.805Z,0.73
2023-03-02T03:53:26.852Z,0.72
2023-03-02T03:58:31.999Z,0.68
2023-03-02T04:03:35.556Z,0.65
2023-03-02T04:08:38.840Z,0.62
2023-03-02T04:13:43.692Z,0.60
2023-03-02T04:18:47.068Z,0.60
2023-03-02T04:23:50.245Z,0.56
2023-03-02T04:28:54.910Z,0.55
2023-03-02T04:33:58.379Z,0.55
2023-03-02T04:39:02.134Z,0.52
2023-03-02T04:44:17.919Z,0.52
2023-03-02T04:49:21.906Z,0.52
2023-03-02T04:54:27.321Z,0.49
2023-03-02T04:59:32.125Z,0.46
2023-03-02T05:04:40.565Z,0.44
2023-03-02T05:09:44.181Z,0.39
2023-03-02T05:14:50.386Z,0.35
2023-03-02T05:19:54.655Z,0.33
2023-03-02T05:25:00.419Z,0.31
2023-03-02T05:30:06.401Z,0.26
2023-03-02T05:35:10.498Z,0.20
2023-03-02T05:40:16.443Z,0.15
2023-03-02T05:45:24.606Z,0.10
2023-03-02T05:50:27.972Z,0.11
2023-03-02T05:55:31.630Z,0.09
2023-03-02T06:00:36.675Z,0.09
2023-03-02T06:05:44.684Z,0.08
2023-03-02T06:10:50.869Z,0.08
2023-03-02T06:15:55.975Z,0.11
2023-03-02T06:20:59.863Z,0.14
2023-03-02T06:26:11.924Z,0.20
2023-03-02T06:31:16.637Z,0.24
2023-03-02T06:36:23.445Z,0.30
2023-03-02T06:41:26.770Z,0.39
2023-03-02T06:46:37.159Z,0.47
2023-03-02T06:51:40.742Z,0.53
2023-03-02T06:56:43.988Z,0.62
2023-03-02T07:01:50.616Z,0.72
2023-03-02T07:06:53.929Z,0.80
2023-03-02T07:12:06.665Z,0.94
2023-03-02T07:17:11.392Z,1.32
2023-03-02T07:22:14.655Z,4.31
2023-03-02T07:27:17.920Z,5.01
2023-03-02T07:32:23.003Z,5.98
2023-03-02T07:37:26.294Z,6.92
2023-03-02T07:42:29.681Z,7.17
2023-03-02T07:47:34.699Z,7.29
2023-03-02T07:52:38.600Z,7.45
2023-03-02T07:57:41.722Z,7.09
2023-03-02T08:02:46.409Z,8.28
2023-03-02T08:07:50.058Z,8.96
2023-03-02T08:12:53.780Z,9.44
2023-03-02T08:17:58.185Z,9.29
2023-03-02T08:23:02.725Z,8.62
2023-03-02T08:28:05.835Z,10.14
2023-03-02T08:33:10.496Z,10.86
2023-03-02T08:38:13.623Z,10.39
2023-03-02T08:43:16.959Z,10.11
2023-03-02T08:48:22.043Z,9.44
2023-03-02T08:53:25.700Z,8.95
2023-03-02T08:58:29.415Z,8.98
2023-03-02T09:03:33.899Z,9.10
2023-03-02T09:08:37.702Z,9.52
2023-03-02T09:13:40.897Z,9.21
2023-03-02T09:18:46.534Z,9.02
2023-03-02T09:23:53.750Z,9.05
2023-03-02T09:28:57.403Z,9.13
2023-03-02T09:34:02.073Z,9.19
2023-03-02T09:39:09.624Z,9.22
2023-03-02T09:44:27.921Z,9.22
2023-03-02T09:49:53.834Z,9.17
2023-03-02T09:55:01.755Z,9.01
2023-03-02T10:00:18.686Z,9.14
2023-03-02T10:05:26.395Z,9.22
2023-03-02T10:10:38.762Z,9.23
2023-03-02T10:15:50.258Z,9.26
2023-03-02T10:21:00.350Z,9.19
2023-03-02T10:26:15.925Z,9.12
2023-03-02T10:31:27.710Z,9.28
2023-03-02T10:36:38.672Z,9.25
2023-03-02T10:41:47.269Z,9.16
2023-03-02T10:46:51.388Z,9.32
2023-03-02T10:52:01.327Z,9.19
2023-03-02T10:57:06.984Z,9.19
2023-03-02T11:02:29.529Z,9.04
2023-03-02T11:07:34.144Z,8.97
2023-03-02T11:12:38.823Z,8.96
2023-03-02T11:17:45.675Z,8.99
2023-03-02T11:22:58.077Z,9.16
2023-03-02T11:28:07.000Z,9.13
2023-03-02T11:33:25.601Z,9.05
2023-03-02T11:38:35.648Z,9.17
2023-03-02T11:43:39.574Z,9.40
2023-03-02T11:48:47.374Z,9.59
2023-03-02T11:53:57.038Z,9.71
2023-03-02T11:59:04.992Z,9.76
2023-03-02T12:04:10.655Z,9.78
2023-03-02T12:09:35.829Z,9.97
2023-03-02T12:14:42.735Z,9.85
2023-03-02T12:19:46.536Z,9.82
2023-03-02T12:25:03.789Z,9.86
2023-03-02T12:30:26.282Z,9.88
2023-03-02T12:35:31.919Z,9.88
2023-03-02T12:40:54.172Z,9.86
2023-03-02T12:46:26.296Z,9.89
2023-03-02T12:51:31.824Z,9.91
2023-03-02T12:56:36.744Z,9.92
2023-03-02T13:01:40.193Z,9.95
2023-03-02T13:06:43.460Z,9.87
2023-03-02T13:11:49.844Z,9.88
2023-03-02T13:16:58.700Z,9.96
2023-03-02T13:22:02.184Z,10.06
2023-03-02T13:27:09.531Z,10.04
2023-03-02T13:32:18.866Z,10.02
2023-03-02T13:37:28.968Z,10.05
2023-03-02T13:42:39.745Z,10.12
2023-03-02T13:47:44.715Z,10.16
2023-03-02T13:52:48.004Z,10.15
2023-03-02T13:57:53.865Z,10.15
2023-03-02T14:02:57.243Z,10.16
2023-03-02T14:08:00.690Z,10.12
2023-03-02T14:13:08.582Z,10.12
2023-03-02T14:18:27.211Z,10.14
2023-03-02T14:23:30.543Z,10.13
2023-03-02T14:28:36.532Z,10.03
2023-03-02T14:33:39.656Z,10.05
2023-03-02T14:38:43.082Z,10.01
2023-03-02T14:43:47.716Z,9.99
2023-03-02T14:48:51.041Z,9.95
2023-03-02T14:53:57.043Z,9.99
2023-03-02T14:59:01.905Z,9.98
2023-03-02T15:04:05.222Z,9.90
2023-03-02T15:09:09.058Z,9.88
2023-03-02T15:14:13.823Z,9.84
2023-03-02T15:19:16.963Z,9.82
2023-03-02T15:24:22.233Z,9.75
2023-03-02T15:29:27.263Z,9.74
2023-03-02T15:34:30.459Z,9.69
2023-03-02T15:39:34.098Z,9.60
2023-03-02T15:44:38.810Z,9.58
2023-03-02T15:49:41.933Z,9.53
2023-03-02T15:54:45.226Z,9.48
2023-03-02T15:59:50.012Z,9.45
2023-03-02T16:04:54.207Z,9.37
2023-03-02T16:09:57.433Z,9.29
2023-03-02T16:15:01.956Z,9.21
2023-03-02T16:20:05.607Z,9.13
2023-03-02T16:25:09.566Z,9.04
2023-03-02T16:30:15.775Z,8.99
2023-03-02T16:35:19.828Z,8.89
2023-03-02T16:40:23.827Z,8.84
2023-03-02T16:45:28.416Z,8.75
2023-03-02T16:50:31.763Z,8.66
2023-03-02T16:55:35.132Z,8.56
2023-03-02T17:00:39.914Z,8.46
2023-03-02T17:05:43.621Z,8.23
2023-03-02T17:10:46.745Z,7.94
2023-03-02T17:15:54.828Z,7.68
2023-03-02T17:20:59.768Z,7.38
2023-03-02T17:26:03.958Z,7.16
2023-03-02T17:31:08.712Z,6.88
2023-03-02T17:36:12.402Z,6.62
2023-03-02T17:41:15.531Z,6.40
2023-03-02T17:46:23.580Z,6.20
2023-03-02T17:51:28.247Z,6.02
2023-03-02T17:56:32.826Z,5.79
2023-03-02T18:01:37.590Z,5.65
2023-03-02T18:06:40.991Z,5.48
2023-03-02T18:11:45.205Z,5.31
2023-03-02T18:16:49.778Z,5.11
2023-03-02T18:21:53.710Z,4.96
2023-03-02T18:26:57.664Z,4.83
2023-03-02T18:32:02.237Z,4.71
2023-03-02T18:37:05.622Z,4.55
2023-03-02T18:42:10.523Z,4.39
2023-03-02T18:47:19.115Z,4.27
2023-03-02T18:52:29.280Z,4.14
2023-03-02T18:57:34.083Z,4.04
2023-03-02T19:02:39.178Z,3.97
2023-03-02T19:07:42.988Z,3.89
2023-03-02T19:12:46.447Z,3.86
2023-03-02T19:17:52.283Z,3.79
2023-03-02T19:22:55.883Z,3.72
2023-03-02T19:27:59.086Z,3.64
2023-03-02T19:33:06.075Z,3.55
2023-03-02T19:38:10.734Z,3.45
2023-03-02T19:43:14.660Z,3.38
2023-03-02T19:48:19.331Z,3.32
2023-03-02T19:53:23.771Z,3.24
2023-03-02T19:58:28.469Z,3.11
2023-03-02T20:03:34.090Z,2.97
2023-03-02T20:08:37.237Z,2.89
2023-03-02T20:13:41.294Z,2.77
2023-03-02T20:18:46.001Z,2.64
2023-03-02T20:23:50.193Z,2.56
2023-03-02T20:28:55.648Z,2.59
2023-03-02T20:34:00.509Z,2.53
2023-03-02T20:39:09.292Z,2.50
2023-03-02T20:44:14.804Z,2.49
2023-03-02T20:49:22.082Z,2.49
2023-03-02T20:54:27.660Z,2.55
2023-03-02T20:59:31.229Z,2.55
2023-03-02T21:04:36.730Z,2.57
2023-03-02T21:09:40.408Z,2.53
2023-03-02T21:14:43.797Z,2.58
2023-03-02T21:19:48.260Z,2.62
2023-03-02T21:24:52.947Z,2.62
2023-03-02T21:29:56.509Z,2.69
2023-03-02T21:35:02.938Z,2.72
2023-03-02T21:40:08.284Z,2.74
2023-03-02T21:45:13.521Z,2.67
2023-03-02T21:50:23.111Z,2.71
2023-03-02T21:55:27.368Z,2.73
2023-03-02T22:00:33.745Z,2.77
2023-03-02T22:05:39.256Z,2.75
2023-03-02T22:10:45.401Z,2.71
2023-03-02T22:15:51.080Z,2.73
2023-03-02T22:20:58.807Z,2.79
2023-03-02T22:26:14.252Z,2.83
2023-03-02T22:31:21.632Z,2.80
2023-03-02T22:36:26.889Z,2.86
2023-03-02T22:41:30.512Z,2.80
2023-03-02T22:46:37.110Z,2.92
2023-03-02T22:51:41.726Z,2.91
2023-03-02T22:56:48.142Z,2.84
2023-03-02T23:01:52.497Z,2.79
2023-03-02T23:07:00.118Z,2.82
2023-03-02T23:12:10.878Z,2.77
2023-03-02T23:17:19.899Z,2.78
2023-03-02T23:22:28.594Z,2.78
2023-03-02T23:27:31.802Z,2.73
2023-03-02T23:32:35.255Z,2.76
2023-03-02T23:37:40.276Z,2.74
2023-03-02T23:42:43.363Z,2.77
2023-03-02T23:47:46.560Z,2.68
2023-03-02T23:52:51.140Z,2.63
2023-03-02T23:57:54.324Z,2.61
